Terminal Aerodrome Forecast
Issued by NWS

Home | Current Version | Previous Version | Text Only | Print | Product List | Glossary On
Versions: 1 2 3 4 5 6 7 8 9 10 11 12 13 14 15
000
FTAK31 PAJN 191700 RRA
TAFASI
TAF
PASI 191741Z 1918/2018 11015G25KT P6SM SCT050 OVC100 WS020/14040KT
     FM192100 11020G30KT P6SM VCSH BKN040 OVC080 WS020/14045KT
     FM200300 11015G25KT P6SM VCSH SCT030 OVC060 WS020/14040KT
     FM200600 11013G21KT 6SM -RA BR SCT025 OVC050 WS020/14035KT
      TEMPO 2010/2014 12015G30KT 4SM -RA BR BKN020 OVC040
     FM201500 14008G18KT 4SM -RA BR SCT012 OVC025=

USA.gov is the U.S. government's official web portal to all federal, state and local government web resources and services.